Time;durP1;ratioP1;P1;durP2;ratioP2;P2;SDS_P1;SDS_P2;PMS_P1;PMS_P2;Temp;Humidity;BMP_temperature;BMP_pressure;BME280_temperature;BME280_humidity;BME280_pressure;Samples;Min_cycle;Max_cycle;Signal;HPM_P1;HPM_P2
2023/02/26 00:01:36;;;;;;;;;0.00;0.00;;;;;20.90;38.60;101642.31;5037899;28;45398;-73
2023/02/26 00:04:03;;;;;;;;;0.00;0.00;;;;;20.91;38.70;101641.34;5037768;28;45276;-74
2023/02/26 00:06:31;;;;;;;;;0.00;0.00;;;;;20.90;38.36;101645.78;5041092;28;45422;-74
2023/02/26 00:08:56;;;;;;;;;2.00;0.00;;;;;20.88;38.40;101639.00;5038106;28;45414;-73
2023/02/26 00:11:22;;;;;;;;;0.00;0.00;;;;;20.88;38.29;101655.69;5035376;28;47056;-72
2023/02/26 00:13:47;;;;;;;;;1.00;1.00;;;;;20.90;38.26;101644.97;5036729;28;45485;-74
2023/02/26 00:16:32;;;;;;;;;2.00;1.00;;;;;20.90;38.24;101650.25;5033749;28;45517;-73
2023/02/26 00:19:00;;;;;;;;;1.00;0.67;;;;;20.90;38.34;101650.25;5036751;28;45465;-74
2023/02/26 00:21:28;;;;;;;;;0.00;0.00;;;;;20.90;38.29;101647.59;5037448;28;47248;-73
2023/02/26 00:23:53;;;;;;;;;1.00;1.00;;;;;20.91;38.17;101655.41;5037012;28;45447;-73
2023/02/26 00:26:20;;;;;;;;;0.00;0.00;;;;;20.90;35.22;101656.38;5037370;28;45362;-74
2023/02/26 00:28:46;;;;;;;;;3.25;1.50;;;;;20.78;34.67;101657.59;5037966;28;45281;-74
2023/02/26 00:31:14;;;;;;;;;1.25;0.25;;;;;20.72;35.32;101649.28;5036591;28;45346;-73
2023/02/26 00:33:40;;;;;;;;;2.00;0.00;;;;;20.71;36.09;101644.97;5037343;28;45343;-72
2023/02/26 00:36:23;;;;;;;;;0.00;0.00;;;;;20.65;36.30;101636.81;5037793;28;45374;-72
2023/02/26 00:39:34;;;;;;;;;1.33;1.00;;;;;20.72;36.11;101651.94;5037846;28;45595;-72
2023/02/26 00:42:00;;;;;;;;;1.00;1.00;;;;;20.72;36.02;101653.75;4937057;28;46193;-72
2023/02/26 00:44:25;;;;;;;;;1.00;1.00;;;;;20.70;36.09;101653.06;4937215;28;45599;-72
2023/02/26 00:46:59;;;;;;;;;1.00;1.00;;;;;20.69;36.20;101643.47;4936871;28;45434;-73
2023/02/26 00:49:53;;;;;;;;;2.00;1.00;;;;;20.71;36.08;101642.31;4937272;28;45520;-72
2023/02/26 00:52:32;;;;;;;;;1.33;0.00;;;;;20.72;36.39;101646.63;4936937;28;47273;-72
2023/02/26 00:54:57;;;;;;;;;0.00;0.00;;;;;20.72;36.46;101653.75;4937057;28;45474;-73
2023/02/26 00:57:22;;;;;;;;;3.00;1.00;;;;;20.71;36.10;101662.66;4937123;28;45321;-73
2023/02/26 00:59:48;;;;;;;;;0.00;0.00;;;;;20.71;36.17;101660.84;4937059;28;45458;-72
2023/02/26 01:02:13;;;;;;;;;2.00;1.00;;;;;20.71;36.16;101666.13;4936061;28;45396;-72
2023/02/26 01:04:39;;;;;;;;;2.00;1.00;;;;;20.70;36.24;101664.47;4936359;28;45417;-72
2023/02/26 01:07:07;;;;;;;;;0.33;0.33;;;;;20.69;36.02;101665.44;4937091;28;45366;-73
2023/02/26 01:09:35;;;;;;;;;1.00;0.67;;;;;20.69;36.03;101664.63;4937031;28;45472;-73
2023/02/26 01:12:04;;;;;;;;;6.00;0.00;;;;;20.63;35.71;101674.00;4940844;28;46104;-72
2023/02/26 01:14:31;;;;;;;;;2.33;1.00;;;;;20.68;36.03;101684.97;4956048;28;45521;-72
2023/02/26 01:17:10;;;;;;;;;1.00;1.00;;;;;20.68;36.04;101670.91;4955972;28;45347;-72
2023/02/26 01:19:40;;;;;;;;;0.00;0.00;;;;;20.63;36.12;101680.09;5009527;28;45379;-72
2023/02/26 01:22:14;;;;;;;;;0.00;0.00;;;;;20.67;35.89;101679.81;5017180;28;46091;-72
2023/02/26 01:24:40;;;;;;;;;5.00;1.00;;;;;20.66;36.03;101676.31;5016979;28;45429;-71
2023/02/26 01:27:06;;;;;;;;;0.00;0.00;;;;;20.66;35.98;101680.81;5017244;28;45340;-73
2023/02/26 01:29:32;;;;;;;;;0.00;0.00;;;;;20.65;35.83;101664.09;5016936;28;45312;-72
2023/02/26 01:32:11;;;;;;;;;0.33;0.33;;;;;20.63;35.98;101674.81;5034529;28;46316;-72
2023/02/26 01:34:48;;;;;;;;;1.67;1.00;;;;;20.65;35.98;101665.91;5036760;28;45315;-72
2023/02/26 01:37:32;;;;;;;;;1.00;1.00;;;;;20.65;35.62;101665.91;5036960;28;45505;-73
2023/02/26 01:40:26;;;;;;;;;1.00;1.00;;;;;20.64;35.80;101678.28;5036835;28;45445;-72
2023/02/26 01:42:55;;;;;;;;;0.00;0.00;;;;;20.62;35.86;101670.53;5018888;28;47427;-72
2023/02/26 01:45:32;;;;;;;;;1.00;1.00;;;;;20.62;35.58;101689.03;5036312;28;45383;-73
2023/02/26 01:48:05;;;;;;;;;1.00;0.00;;;;;20.62;35.88;101696.97;5036753;28;45402;-72
2023/02/26 01:50:35;;;;;;;;;1.00;1.00;;;;;20.61;35.75;101703.22;5036636;28;45380;-71
2023/02/26 01:53:23;;;;;;;;;1.00;1.00;;;;;20.62;35.56;101704.06;5036501;28;47437;-73
2023/02/26 01:55:55;;;;;;;;;1.00;0.67;;;;;20.60;35.64;101696.28;5036470;28;45501;-73
2023/02/26 01:58:23;;;;;;;;;0.00;0.00;;;;;20.59;35.53;101699.91;5036531;28;45296;-73
2023/02/26 02:00:48;;;;;;;;;1.00;1.00;;;;;20.59;35.37;101699.91;5036446;28;45311;-71
2023/02/26 02:03:14;;;;;;;;;0.00;0.00;;;;;20.59;35.65;101705.19;5036290;28;46051;-72
2023/02/26 02:05:49;;;;;;;;;1.33;0.00;;;;;20.30;35.56;101669.19;5036316;28;45329;-72
2023/02/26 02:08:15;;;;;;;;;1.00;1.00;;;;;20.59;35.88;101714.94;5036777;28;45413;-73
2023/02/26 02:10:47;;;;;;;;;1.00;1.00;;;;;20.56;35.34;101705.47;5036234;28;45319;-72
2023/02/26 02:13:38;;;;;;;;;1.00;1.00;;;;;20.58;35.48;101719.38;5035742;28;45726;-72
2023/02/26 02:16:19;;;;;;;;;0.00;0.00;;;;;20.57;35.47;101728.31;5033139;28;45469;-72
2023/02/26 02:19:06;;;;;;;;;1.00;1.00;;;;;20.56;35.40;101721.34;5036259;28;45393;-72
2023/02/26 02:21:34;;;;;;;;;1.33;1.00;;;;;20.55;35.74;101719.69;5036314;28;45325;-72
2023/02/26 02:24:10;;;;;;;;;0.00;0.00;;;;;20.56;35.40;101713.41;5036061;28;45337;-72
2023/02/26 02:26:43;;;;;;;;;1.00;0.00;;;;;20.56;35.78;101712.56;5035200;28;45240;-72
2023/02/26 02:29:24;;;;;;;;;1.75;1.00;;;;;20.54;35.40;101701.31;5035802;28;45336;-72
2023/02/26 02:31:56;;;;;;;;;1.00;1.00;;;;;20.56;35.36;101702.00;5035883;28;45344;-72
2023/02/26 02:34:36;;;;;;;;;1.00;1.00;;;;;20.56;35.19;101707.28;5035936;28;45437;-72
2023/02/26 02:37:11;;;;;;;;;1.00;0.00;;;;;20.56;34.97;101713.41;5035876;28;45247;-72
2023/02/26 02:39:43;;;;;;;;;0.00;0.00;;;;;20.53;35.46;101697.88;5035954;28;45382;-72
2023/02/26 02:42:30;;;;;;;;;2.00;1.00;;;;;20.54;35.27;101704.81;5035522;28;45387;-73
2023/02/26 02:45:06;;;;;;;;;0.75;0.25;;;;;20.53;35.28;101705.81;5035809;28;46282;-74
2023/02/26 02:47:36;;;;;;;;;0.75;0.25;;;;;20.50;35.02;101704.28;5035650;28;45309;-73
2023/02/26 02:50:08;;;;;;;;;0.25;0.25;;;;;20.53;35.09;101710.25;5035939;28;45287;-73
2023/02/26 02:52:43;;;;;;;;;0.67;0.67;;;;;20.52;35.20;101704.13;5035715;28;45276;-73
2023/02/26 02:55:24;;;;;;;;;3.00;1.67;;;;;20.53;34.90;101704.97;5035782;28;45386;-73
2023/02/26 02:57:59;;;;;;;;;0.00;0.00;;;;;20.54;35.28;101707.44;5035418;28;45453;-73
2023/02/26 03:00:28;;;;;;;;;1.00;0.00;;;;;20.54;35.02;101706.59;5035641;28;45422;-72
2023/02/26 03:03:17;;;;;;;;;0.33;0.33;;;;;20.53;35.28;101708.44;5035817;28;45262;-73
2023/02/26 03:05:42;;;;;;;;;1.33;1.00;;;;;20.53;34.88;101713.72;5035245;28;46356;-72
2023/02/26 03:08:12;;;;;;;;;2.33;1.67;;;;;20.54;34.94;101710.09;5035434;28;45442;-73
2023/02/26 03:10:38;;;;;;;;;4.00;0.75;;;;;20.55;35.12;101718.84;5035556;28;45189;-72
2023/02/26 03:13:04;;;;;;;;;0.67;0.67;;;;;20.49;35.13;101715.00;5035035;28;45416;-72
2023/02/26 03:15:43;;;;;;;;;3.33;0.33;;;;;20.55;34.93;101718.84;5035451;28;46370;-72
2023/02/26 03:18:27;;;;;;;;;1.00;0.00;;;;;20.54;34.94;101722.47;5035596;28;45359;-72
2023/02/26 03:21:02;;;;;;;;;1.00;1.00;;;;;20.51;34.98;101726.25;5034713;28;45314;-73
2023/02/26 03:23:35;;;;;;;;;0.00;0.00;;;;;20.53;35.05;101721.66;5035455;28;45310;-72
2023/02/26 03:26:08;;;;;;;;;0.00;0.00;;;;;20.52;34.90;101727.91;5035231;28;47138;-72
2023/02/26 03:28:47;;;;;;;;;0.33;0.00;;;;;20.53;35.37;101731.41;5038873;28;45295;-73
2023/02/26 03:31:31;;;;;;;;;0.00;0.00;;;;;20.53;34.99;101740.16;5038810;28;45469;-72
2023/02/26 03:34:19;;;;;;;;;1.00;1.00;;;;;20.53;35.12;101737.53;5038813;28;45396;-73
2023/02/26 03:37:00;;;;;;;;;1.00;1.00;;;;;20.53;34.89;101748.09;5038414;28;46212;-72
2023/02/26 03:39:50;;;;;;;;;0.00;0.00;;;;;20.52;34.76;101757.00;5038727;28;45367;-72
2023/02/26 03:42:21;;;;;;;;;0.00;0.00;;;;;20.50;34.65;101757.16;5038406;28;45378;-72
2023/02/26 03:44:52;;;;;;;;;0.00;0.00;;;;;20.49;35.13;101757.28;5038805;28;45386;-72
2023/02/26 03:47:18;;;;;;;;;1.00;0.00;;;;;20.51;34.75;101750.03;5038376;28;45395;-72
2023/02/26 03:49:48;;;;;;;;;0.33;0.33;;;;;20.51;34.74;101750.03;5038453;28;45327;-73
2023/02/26 03:52:15;;;;;;;;;0.00;0.00;;;;;20.50;34.61;101748.38;5020878;28;45391;-72
2023/02/26 03:55:15;;;;;;;;;1.00;0.00;;;;;20.48;34.90;101747.72;5020351;28;45403;-72
2023/02/26 03:57:42;;;;;;;;;1.00;1.00;;;;;20.49;35.00;101746.72;4937965;28;45830;-73
2023/02/26 04:00:09;;;;;;;;;1.00;0.33;;;;;20.48;35.09;101753.00;4937866;28;45433;-72
2023/02/26 04:03:06;;;;;;;;;2.00;0.67;;;;;20.48;34.93;101756.44;4938119;28;45456;-72
2023/02/26 04:05:36;;;;;;;;;1.00;1.00;;;;;20.48;34.72;101761.72;4937830;28;45454;-72
2023/02/26 04:08:02;;;;;;;;;1.00;1.00;;;;;20.39;34.94;101747.59;4937695;28;46314;-72
2023/02/26 04:10:40;;;;;;;;;1.00;0.00;;;;;20.48;34.62;101760.94;4937315;28;45552;-72
2023/02/26 04:13:06;;;;;;;;;0.00;0.00;;;;;20.39;34.73;101755.53;4950663;28;45440;-72
2023/02/26 04:15:32;;;;;;;;;0.33;0.33;;;;;20.47;34.63;101768.03;4957251;28;45644;-72
2023/02/26 04:17:57;;;;;;;;;0.00;0.00;;;;;20.38;34.87;101759.16;4956975;28;45938;-72
2023/02/26 04:20:23;;;;;;;;;0.50;0.50;;;;;20.37;34.79;101757.50;4956875;28;45377;-72
2023/02/26 04:22:48;;;;;;;;;1.00;1.00;;;;;20.42;34.63;101775.56;4957040;28;45394;-72
2023/02/26 04:25:13;;;;;;;;;1.00;1.00;;;;;20.46;34.68;101782.22;4956776;28;45363;-72
2023/02/26 04:27:39;;;;;;;;;0.00;0.00;;;;;20.46;34.51;101791.94;4956722;28;47140;-72
2023/02/26 04:30:05;;;;;;;;;1.33;0.00;;;;;20.45;34.46;101785.84;4954782;28;45489;-72
2023/02/26 04:32:30;;;;;;;;;1.00;1.00;;;;;20.43;34.56;101777.22;4957448;28;45455;-73
2023/02/26 04:34:55;;;;;;;;;2.00;1.00;;;;;20.45;34.86;101779.72;5037592;28;45272;-72
2023/02/26 04:37:21;;;;;;;;;0.75;0.75;;;;;20.44;34.36;101780.69;5037468;28;48548;-72
2023/02/26 04:39:46;;;;;;;;;2.25;1.00;;;;;20.44;34.62;101783.34;5019534;28;45456;-72
2023/02/26 04:42:11;;;;;;;;;2.75;1.00;;;;;20.43;34.47;101784.31;5038050;28;45384;-72
2023/02/26 04:44:37;;;;;;;;;0.50;0.50;;;;;20.43;34.38;101782.50;5037903;28;45372;-73
2023/02/26 04:47:02;;;;;;;;;0.67;0.67;;;;;20.42;34.54;101780.84;5037504;28;46020;-72
2023/02/26 04:49:28;;;;;;;;;1.00;1.00;;;;;20.44;34.16;101791.25;5037646;28;45383;-73
2023/02/26 04:51:53;;;;;;;;;0.33;0.33;;;;;20.42;34.02;101786.13;5037730;28;45534;-72
2023/02/26 04:54:18;;;;;;;;;1.50;0.50;;;;;20.43;34.24;101785.13;5037426;28;45413;-72
2023/02/26 04:56:44;;;;;;;;;1.00;1.00;;;;;20.43;34.47;101792.25;5037460;28;46910;-73
2023/02/26 04:59:09;;;;;;;;;1.25;0.25;;;;;20.42;34.33;101787.94;5037427;28;45430;-72
2023/02/26 05:01:34;;;;;;;;;0.33;0.33;;;;;20.42;34.18;101780.00;5037562;28;45382;-72
2023/02/26 05:04:00;;;;;;;;;1.50;0.75;;;;;20.42;34.33;101786.13;5037479;28;45466;-72
2023/02/26 05:06:25;;;;;;;;;1.25;0.50;;;;;20.43;34.34;101801.00;5037157;28;47281;-72
2023/02/26 05:08:51;;;;;;;;;1.00;1.00;;;;;20.43;34.75;101800.19;5037107;28;45403;-72
2023/02/26 05:11:16;;;;;;;;;0.67;0.67;;;;;20.43;34.34;101800.19;5037521;28;46152;-72
2023/02/26 05:13:41;;;;;;;;;1.00;1.00;;;;;20.44;34.50;101807.97;5037375;28;45443;-72
2023/02/26 05:16:07;;;;;;;;;1.33;0.00;;;;;20.43;34.17;101808.94;5037362;28;45387;-72
2023/02/26 05:18:33;;;;;;;;;1.00;1.00;;;;;20.41;34.63;101808.25;5037157;28;45445;-72
2023/02/26 05:20:59;;;;;;;;;0.00;0.00;;;;;20.43;34.16;101818.69;5037263;28;45518;-72
2023/02/26 05:23:24;;;;;;;;;1.00;1.00;;;;;20.43;34.29;101821.34;5036958;28;45426;-73
2023/02/26 05:25:50;;;;;;;;;0.25;0.25;;;;;20.43;34.47;101814.22;5036919;28;45355;-72
2023/02/26 05:28:15;;;;;;;;;2.00;0.00;;;;;20.37;34.46;101805.06;5037148;28;45374;-72
2023/02/26 05:30:41;;;;;;;;;1.00;1.00;;;;;20.43;34.21;101814.22;5036932;28;45380;-72
2023/02/26 05:33:06;;;;;;;;;0.33;0.00;;;;;20.40;34.32;101806.59;5037144;28;45467;-72
2023/02/26 05:35:31;;;;;;;;;0.00;0.00;;;;;20.43;34.53;101818.69;5018819;28;47306;-73
2023/02/26 05:37:57;;;;;;;;;1.00;1.00;;;;;20.43;34.16;101829.25;5036449;28;45331;-73
2023/02/26 05:40:23;;;;;;;;;0.00;0.00;;;;;20.41;34.21;101839.97;5036962;28;45351;-73
2023/02/26 05:42:48;;;;;;;;;0.67;0.67;;;;;20.42;34.41;101843.44;5035522;28;45613;-73
2023/02/26 05:45:13;;;;;;;;;2.00;0.00;;;;;20.40;34.04;101847.06;5036677;28;45319;-73
2023/02/26 05:47:39;;;;;;;;;1.00;1.00;;;;;20.40;34.14;101848.88;5036789;28;45368;-73
2023/02/26 05:50:05;;;;;;;;;0.50;0.25;;;;;20.39;34.34;101850.69;5035932;28;45311;-73
2023/02/26 05:52:31;;;;;;;;;2.00;0.00;;;;;20.41;34.04;101850.53;5036500;28;45534;-72
2023/02/26 05:54:56;;;;;;;;;1.00;0.00;;;;;20.42;34.29;101856.66;5036557;28;45401;-73
2023/02/26 05:57:22;;;;;;;;;1.67;1.00;;;;;20.41;34.17;101855.81;5018692;28;45316;-72
2023/02/26 05:59:47;;;;;;;;;1.50;1.25;;;;;20.33;34.25;101845.97;5036590;28;45161;-73
2023/02/26 06:02:13;;;;;;;;;0.00;0.00;;;;;20.41;34.25;101855.81;5036689;28;45213;-72
2023/02/26 06:04:38;;;;;;;;;1.00;1.00;;;;;20.39;34.04;101853.34;5036444;28;46189;-72
2023/02/26 06:07:04;;;;;;;;;1.00;0.00;;;;;20.38;34.24;101861.41;5036176;28;45312;-72
2023/02/26 06:09:29;;;;;;;;;1.00;0.75;;;;;20.37;34.21;101868.50;5036426;28;45656;-72
2023/02/26 06:11:54;;;;;;;;;0.75;0.75;;;;;20.37;34.24;101873.81;5036348;28;45280;-72
2023/02/26 06:14:20;;;;;;;;;2.00;1.00;;;;;20.37;34.40;101873.81;5036436;28;46344;-73
2023/02/26 06:16:45;;;;;;;;;0.67;0.00;;;;;20.37;34.21;101875.59;5036437;28;45308;-73
2023/02/26 06:19:11;;;;;;;;;2.00;0.33;;;;;20.36;34.28;101872.13;5036580;28;45329;-72
2023/02/26 06:21:36;;;;;;;;;0.33;0.33;;;;;20.25;33.99;101854.63;5036132;28;45304;-73
2023/02/26 06:24:01;;;;;;;;;0.00;0.00;;;;;20.32;33.98;101864.63;5036243;28;45375;-72
2023/02/26 06:26:27;;;;;;;;;0.00;0.00;;;;;20.36;34.06;101879.22;5036318;28;45406;-72
2023/02/26 06:28:52;;;;;;;;;1.00;1.00;;;;;20.36;34.27;101881.84;5035579;28;45363;-73
2023/02/26 06:31:17;;;;;;;;;0.00;0.00;;;;;20.36;34.10;101873.94;5036088;28;45355;-73
2023/02/26 06:33:43;;;;;;;;;1.00;1.00;;;;;20.35;33.99;101869.63;5036073;28;45410;-73
2023/02/26 06:36:08;;;;;;;;;2.00;0.00;;;;;20.36;34.32;101882.69;5035577;28;45542;-72
2023/02/26 06:38:34;;;;;;;;;1.00;0.00;;;;;20.36;33.87;101874.75;5018329;28;45359;-72
2023/02/26 06:40:59;;;;;;;;;0.00;0.00;;;;;20.37;33.88;101872.97;5036033;28;45446;-73
2023/02/26 06:43:24;;;;;;;;;0.00;0.00;;;;;20.35;34.07;101874.91;5036039;28;45430;-73
2023/02/26 06:45:50;;;;;;;;;3.00;0.00;;;;;20.36;34.19;101876.56;5035349;28;45481;-73
2023/02/26 06:48:15;;;;;;;;;0.00;0.00;;;;;20.27;34.00;101873.81;5035932;28;45691;-73
2023/02/26 06:50:41;;;;;;;;;1.00;0.67;;;;;20.37;33.74;101887.03;5035593;28;45396;-73
2023/02/26 06:53:06;;;;;;;;;0.33;0.33;;;;;20.36;34.06;101881.84;5035781;28;45324;-71
2023/02/26 06:55:32;;;;;;;;;0.00;0.00;;;;;20.36;34.19;101890.63;5035703;28;45284;-73
2023/02/26 06:57:58;;;;;;;;;1.67;0.67;;;;;20.37;34.10;101905.53;5035938;28;45355;-73
2023/02/26 07:00:24;;;;;;;;;0.00;0.00;;;;;20.37;33.96;101905.53;5035689;28;45475;-73
2023/02/26 07:02:50;;;;;;;;;1.67;1.67;;;;;20.37;34.01;101905.53;5035600;28;46182;-72
2023/02/26 07:05:16;;;;;;;;;1.00;0.00;;;;;20.37;33.97;101910.81;5035237;28;45394;-73
2023/02/26 07:07:41;;;;;;;;;0.33;0.33;;;;;20.35;33.92;101904.00;5035581;28;45478;-73
2023/02/26 07:10:09;;;;;;;;;3.33;1.00;;;;;20.38;33.95;101923.03;5035582;28;45334;-72
2023/02/26 07:12:34;;;;;;;;;0.67;0.33;;;;;20.36;34.10;101922.34;5034746;28;46235;-72
2023/02/26 07:14:59;;;;;;;;;1.00;1.00;;;;;20.38;34.01;101935.41;5035486;28;45286;-72
2023/02/26 07:17:25;;;;;;;;;0.50;0.50;;;;;20.37;34.18;101939.88;5035423;28;45364;-73
2023/02/26 07:19:51;;;;;;;;;0.00;0.00;;;;;20.38;33.95;101944.19;5035530;28;45557;-72
2023/02/26 07:22:18;;;;;;;;;1.00;0.00;;;;;20.37;33.85;101958.38;5035424;28;46188;-72
2023/02/26 07:24:44;;;;;;;;;0.33;0.33;;;;;20.38;33.80;101967.13;5035326;28;45227;-72
2023/02/26 07:27:10;;;;;;;;;0.00;0.00;;;;;20.38;34.26;101965.31;5035345;28;45267;-73
2023/02/26 07:29:36;;;;;;;;;0.00;0.00;;;;;20.38;33.92;101969.78;5035514;28;45304;-72
2023/02/26 07:32:02;;;;;;;;;0.33;0.33;;;;;20.36;34.14;101975.22;5034877;28;46091;-73
2023/02/26 07:34:27;;;;;;;;;0.33;0.00;;;;;20.32;33.81;101973.00;5035386;28;45367;-73
2023/02/26 07:36:53;;;;;;;;;0.00;0.00;;;;;20.36;34.02;101988.41;5034584;28;45688;-72
2023/02/26 07:39:19;;;;;;;;;1.00;0.00;;;;;20.32;33.77;101973.00;5035230;28;45452;-71
2023/02/26 07:41:44;;;;;;;;;1.00;1.00;;;;;20.32;33.95;101984.41;5035034;28;46300;-72
2023/02/26 07:44:09;;;;;;;;;2.67;0.00;;;;;20.37;34.04;101997.19;5035371;28;45425;-71
2023/02/26 07:46:35;;;;;;;;;0.75;0.75;;;;;20.36;33.90;101996.34;5034847;28;45901;-72
2023/02/26 07:49:00;;;;;;;;;0.00;0.00;;;;;20.36;33.86;101995.50;5035220;28;45377;-72
2023/02/26 07:51:25;;;;;;;;;2.50;1.00;;;;;20.36;33.82;102003.44;5017236;28;45534;-72
2023/02/26 07:53:51;;;;;;;;;1.00;1.00;;;;;20.31;33.90;101995.94;5017119;28;45432;-72
2023/02/26 07:56:16;;;;;;;;;1.00;1.00;;;;;20.36;33.83;102001.63;5035140;28;45407;-72
2023/02/26 07:58:41;;;;;;;;;4.00;1.25;;;;;20.37;33.77;102007.75;5035043;28;45248;-72
2023/02/26 08:01:07;;;;;;;;;0.67;0.67;;;;;20.37;33.58;102013.06;5016535;28;45989;-72
2023/02/26 08:03:32;;;;;;;;;0.00;0.00;;;;;20.36;33.50;102017.50;5034996;28;45232;-72
2023/02/26 08:05:59;;;;;;;;;0.00;0.00;;;;;20.37;33.74;102021.81;5034959;28;45366;-72
2023/02/26 08:08:25;;;;;;;;;1.33;0.33;;;;;20.36;33.80;102022.78;5034787;28;45373;-71
2023/02/26 08:10:50;;;;;;;;;0.00;0.00;;;;;20.37;33.82;102032.41;5034687;28;45404;-71
2023/02/26 08:13:16;;;;;;;;;0.75;0.75;;;;;20.37;33.56;102023.63;5036766;28;45323;-72
2023/02/26 08:15:42;;;;;;;;;1.00;1.00;;;;;20.34;33.59;102002.75;5031895;28;45636;-73
2023/02/26 08:18:08;;;;;;;;;0.00;0.00;;;;;20.36;33.55;102019.31;5014015;28;45390;-74
2023/02/26 08:20:34;;;;;;;;;0.67;0.00;;;;;20.38;33.53;102026.13;5036331;28;45393;-73
2023/02/26 08:23:02;;;;;;;;;0.00;0.00;;;;;20.39;34.02;102024.31;5036351;28;45308;-73
2023/02/26 08:25:27;;;;;;;;;0.00;0.00;;;;;20.42;33.68;102036.41;5034146;28;45304;-72
2023/02/26 08:27:53;;;;;;;;;0.00;0.00;;;;;20.42;33.48;102033.78;5036422;28;45363;-74
2023/02/26 08:30:18;;;;;;;;;0.00;0.00;;;;;20.43;33.66;102043.38;5035677;28;46140;-75
2023/02/26 08:32:44;;;;;;;;;1.00;1.00;;;;;20.44;33.54;102032.66;5036481;28;45350;-76
2023/02/26 08:35:10;;;;;;;;;1.00;1.00;;;;;20.44;33.53;102037.09;5018369;28;45391;-75
2023/02/26 08:37:37;;;;;;;;;0.67;0.33;;;;;20.45;33.73;102022.94;5036285;28;45435;-76
2023/02/26 08:40:04;;;;;;;;;1.00;1.00;;;;;20.47;33.77;102040.31;5030983;28;46252;-79
2023/02/26 08:42:31;;;;;;;;;1.00;1.00;;;;;20.52;33.83;102042.53;5035126;28;45513;-79
2023/02/26 08:44:56;;;;;;;;;1.33;0.00;;;;;20.60;33.82;102041.81;5037031;28;45425;-78
2023/02/26 08:47:22;;;;;;;;;0.00;0.00;;;;;20.66;33.74;102056.31;5037453;28;45296;-79
2023/02/26 08:49:47;;;;;;;;;0.00;0.00;;;;;20.70;33.94;102055.03;5036995;28;45363;-78
2023/02/26 08:52:12;;;;;;;;;0.00;0.00;;;;;20.73;33.90;102020.38;5031739;28;45428;-78
2023/02/26 08:54:38;;;;;;;;;1.00;0.00;;;;;20.77;34.03;102069.34;5032259;28;45335;-79
2023/02/26 08:57:03;;;;;;;;;0.00;0.00;;;;;20.75;33.84;102050.16;5022891;28;45344;-77
2023/02/26 08:59:28;;;;;;;;;1.67;0.00;;;;;20.80;33.79;102058.50;5020171;28;47096;-74
2023/02/26 09:01:54;;;;;;;;;0.00;0.00;;;;;20.81;33.89;102060.19;5040996;28;45356;-75
2023/02/26 09:04:20;;;;;;;;;3.00;1.00;;;;;20.84;33.96;102064.34;5023453;28;45574;-77
2023/02/26 09:06:45;;;;;;;;;0.33;0.33;;;;;20.84;32.40;102070.44;5037758;28;45553;-78
2023/02/26 09:09:10;;;;;;;;;1.00;1.00;;;;;20.70;31.94;102057.69;5036407;28;46158;-76
2023/02/26 09:11:36;;;;;;;;;1.33;0.00;;;;;20.50;32.88;102029.47;5036958;28;45413;-79
2023/02/26 09:14:02;;;;;;;;;2.00;0.00;;;;;20.66;32.99;102051.81;5038180;28;45610;-79
2023/02/26 09:16:28;;;;;;;;;1.00;0.00;;;;;20.76;33.08;102069.50;5039152;28;45488;-78
2023/02/26 09:18:53;;;;;;;;;2.00;1.00;;;;;20.74;33.22;102078.41;5038482;28;47188;-78
2023/02/26 09:21:19;;;;;;;;;0.00;0.00;;;;;20.73;33.33;102100.56;5038782;28;45377;-78
2023/02/26 09:23:44;;;;;;;;;0.67;0.00;;;;;20.71;33.00;102065.47;5036768;28;45413;-78
2023/02/26 09:26:09;;;;;;;;;1.00;1.00;;;;;20.65;33.20;102067.84;5019274;28;45375;-78
2023/02/26 09:28:35;;;;;;;;;0.00;0.00;;;;;20.66;32.90;102080.09;5036889;28;45549;-79
2023/02/26 09:31:00;;;;;;;;;1.00;0.00;;;;;20.69;33.19;102109.72;5036824;28;45333;-80
2023/02/26 09:33:25;;;;;;;;;0.00;0.00;;;;;20.70;32.48;102086.75;5036516;28;45387;-80
2023/02/26 09:35:51;;;;;;;;;3.00;0.75;;;;;20.69;32.92;102088.56;5036874;28;45493;-80
2023/02/26 09:38:17;;;;;;;;;0.00;0.00;;;;;20.66;32.71;102064.22;5036881;28;47058;-80
2023/02/26 09:40:49;;;;;;;;;0.00;0.00;;;;;20.68;32.79;102081.63;5037282;28;45323;-79
2023/02/26 09:43:47;;;;;;;;;1.00;1.00;;;;;20.67;32.83;102090.53;5037372;28;45517;-79
2023/02/26 09:46:15;;;;;;;;;0.33;0.33;;;;;20.67;32.64;102094.97;5038967;28;45302;-79
2023/02/26 09:48:44;;;;;;;;;1.33;0.00;;;;;20.67;32.47;102085.25;5040176;28;46250;-79
2023/02/26 09:51:16;;;;;;;;;0.00;0.00;;;;;20.57;32.89;102111.69;5038408;28;45418;-79
2023/02/26 09:53:43;;;;;;;;;0.00;0.00;;;;;20.66;32.51;102141.72;5036486;28;45496;-80
2023/02/26 09:56:23;;;;;;;;;2.67;1.00;;;;;20.66;32.67;102128.50;5038028;28;45384;-80
2023/02/26 09:58:52;;;;;;;;;0.00;0.00;;;;;20.63;32.70;102105.00;5037253;28;46013;-78
2023/02/26 10:01:30;;;;;;;;;0.00;0.00;;;;;20.65;32.70;102113.63;5037649;28;45343;-80
2023/02/26 10:04:32;;;;;;;;;0.00;0.00;;;;;20.63;32.32;102116.41;5037617;28;45367;-80
2023/02/26 10:07:19;;;;;;;;;0.00;0.00;;;;;20.63;32.41;102119.06;5037880;28;45392;-78
2023/02/26 10:09:57;;;;;;;;;0.00;0.00;;;;;20.63;32.18;102158.72;5020644;28;46292;-80
2023/02/26 10:12:27;;;;;;;;;0.00;0.00;;;;;20.57;32.21;102137.28;5038637;28;45518;-80
2023/02/26 10:15:01;;;;;;;;;0.00;0.00;;;;;20.63;32.13;102126.19;5040937;28;45411;-80
2023/02/26 10:17:39;;;;;;;;;0.00;0.00;;;;;20.62;32.40;102156.22;5022348;28;45416;-79
2023/02/26 10:20:19;;;;;;;;;1.67;1.00;;;;;20.62;31.91;102124.50;5039555;28;46393;-79
2023/02/26 10:23:03;;;;;;;;;0.00;0.00;;;;;20.62;32.26;102143.00;5039844;28;45369;-79
2023/02/26 10:25:38;;;;;;;;;0.00;0.00;;;;;20.60;32.12;102145.78;5039306;28;45434;-80
2023/02/26 10:28:43;;;;;;;;;0.00;0.00;;;;;20.60;32.08;102139.66;5021498;28;45380;-79
2023/02/26 10:31:15;;;;;;;;;0.00;0.00;;;;;20.59;32.06;102145.91;5019165;28;45481;-79
2023/02/26 10:33:58;;;;;;;;;1.00;0.00;;;;;20.58;32.03;102137.16;5037207;28;45301;-80
2023/02/26 10:36:26;;;;;;;;;0.00;0.00;;;;;20.60;31.83;102155.53;5036482;28;45393;-79
2023/02/26 10:39:03;;;;;;;;;0.00;0.00;;;;;20.61;32.03;102157.19;5038039;28;45268;-79
2023/02/26 10:41:30;;;;;;;;;1.67;0.33;;;;;20.61;31.90;102147.44;5038040;28;46417;-79
2023/02/26 10:44:06;;;;;;;;;0.00;0.00;;;;;20.57;31.86;102159.28;5037446;28;45343;-80
2023/02/26 10:47:07;;;;;;;;;0.00;0.00;;;;;20.59;31.65;102183.78;5038632;28;45347;-79
2023/02/26 10:49:33;;;;;;;;;1.67;0.00;;;;;20.58;31.33;102174.16;5038952;28;45368;-79
2023/02/26 10:52:10;;;;;;;;;0.00;0.00;;;;;20.58;32.00;102170.72;5036766;28;47207;-78
2023/02/26 10:54:42;;;;;;;;;0.00;0.00;;;;;20.54;31.95;102146.34;5036500;28;45329;-79
2023/02/26 10:57:19;;;;;;;;;1.33;0.00;;;;;20.58;31.55;102194.50;5036575;28;45284;-79
2023/02/26 10:59:45;;;;;;;;;0.00;0.00;;;;;20.57;31.43;102198.94;5037219;28;45348;-79
2023/02/26 11:02:41;;;;;;;;;1.00;1.00;;;;;20.53;31.41;102146.50;5036563;28;46992;-79
2023/02/26 11:05:17;;;;;;;;;1.00;0.00;;;;;20.57;31.37;102182.25;5036681;28;45473;-79
2023/02/26 11:07:47;;;;;;;;;1.00;1.00;;;;;20.57;31.24;102166.38;5037524;28;45329;-79
2023/02/26 11:10:16;;;;;;;;;0.67;0.00;;;;;20.55;31.52;102185.03;5037663;28;45332;-79
2023/02/26 11:12:42;;;;;;;;;0.00;0.00;;;;;20.56;31.29;102157.59;5036581;28;47126;-79
2023/02/26 11:15:17;;;;;;;;;0.00;0.00;;;;;20.55;31.62;102163.88;5037289;28;45334;-77
2023/02/26 11:17:47;;;;;;;;;0.00;0.00;;;;;20.55;31.51;102200.06;5036608;28;45340;-79
2023/02/26 11:20:19;;;;;;;;;0.00;0.00;;;;;20.55;31.15;102190.31;5037833;28;45257;-78
2023/02/26 11:22:51;;;;;;;;;0.00;0.00;;;;;20.55;31.47;102184.19;5039590;28;46376;-78
2023/02/26 11:25:22;;;;;;;;;0.67;0.00;;;;;20.55;31.33;102192.97;5038224;28;45382;-78
2023/02/26 11:27:52;;;;;;;;;0.00;0.00;;;;;20.54;31.07;102174.59;5037701;28;45275;-79
2023/02/26 11:30:19;;;;;;;;;2.00;0.00;;;;;20.53;31.38;102175.56;5036990;28;45399;-78
2023/02/26 11:32:49;;;;;;;;;0.00;0.00;;;;;20.49;31.60;102159.97;5036296;28;45989;-78
2023/02/26 11:35:16;;;;;;;;;1.33;0.00;;;;;20.54;31.10;102190.44;5035366;28;45300;-79
2023/02/26 11:37:48;;;;;;;;;0.00;0.00;;;;;20.54;30.96;102182.50;5036382;28;45399;-79